sensor_id;sensor_type;location;lat;lon;timestamp;P1;durP1;ratioP1;P2;durP2;ratioP2
69985;SDS011;57328;52.054;5.294;2023-08-01T00:00:47;8.07;;;2.80;;
69985;SDS011;57328;52.054;5.294;2023-08-01T00:03:14;7.18;;;2.22;;
69985;SDS011;57328;52.054;5.294;2023-08-01T00:05:42;9.23;;;2.50;;
69985;SDS011;57328;52.054;5.294;2023-08-01T00:08:11;10.25;;;2.83;;
69985;SDS011;57328;52.054;5.294;2023-08-01T00:10:39;9.10;;;2.80;;
69985;SDS011;57328;52.054;5.294;2023-08-01T00:13:06;7.93;;;2.45;;
69985;SDS011;57328;52.054;5.294;2023-08-01T00:15:34;5.20;;;2.13;;
69985;SDS011;57328;52.054;5.294;2023-08-01T00:18:01;7.70;;;2.70;;
69985;SDS011;57328;52.054;5.294;2023-08-01T00:20:29;9.10;;;2.78;;
69985;SDS011;57328;52.054;5.294;2023-08-01T00:22:56;10.05;;;2.33;;
69985;SDS011;57328;52.054;5.294;2023-08-01T00:25:23;9.63;;;2.60;;
69985;SDS011;57328;52.054;5.294;2023-08-01T00:27:50;6.70;;;2.15;;
69985;SDS011;57328;52.054;5.294;2023-08-01T00:30:18;11.00;;;2.88;;
69985;SDS011;57328;52.054;5.294;2023-08-01T00:32:45;6.32;;;2.53;;
69985;SDS011;57328;52.054;5.294;2023-08-01T00:35:12;8.77;;;2.67;;
69985;SDS011;57328;52.054;5.294;2023-08-01T00:37:39;8.70;;;2.67;;
69985;SDS011;57328;52.054;5.294;2023-08-01T00:40:07;8.85;;;2.97;;
69985;SDS011;57328;52.054;5.294;2023-08-01T00:42:37;11.82;;;2.88;;
69985;SDS011;57328;52.054;5.294;2023-08-01T00:45:05;13.40;;;3.13;;
69985;SDS011;57328;52.054;5.294;2023-08-01T00:47:32;8.57;;;3.45;;
69985;SDS011;57328;52.054;5.294;2023-08-01T00:50:00;10.10;;;3.05;;
69985;SDS011;57328;52.054;5.294;2023-08-01T00:52:28;19.60;;;3.88;;
69985;SDS011;57328;52.054;5.294;2023-08-01T00:54:55;9.55;;;3.05;;
69985;SDS011;57328;52.054;5.294;2023-08-01T00:57:22;9.52;;;2.83;;
69985;SDS011;57328;52.054;5.294;2023-08-01T00:59:50;10.40;;;3.38;;
69985;SDS011;57328;52.054;5.294;2023-08-01T01:02:17;9.90;;;3.13;;
69985;SDS011;57328;52.054;5.294;2023-08-01T01:04:44;14.77;;;3.42;;
69985;SDS011;57328;52.054;5.294;2023-08-01T01:07:12;13.40;;;3.50;;
69985;SDS011;57328;52.054;5.294;2023-08-01T01:09:39;10.60;;;3.67;;
69985;SDS011;57328;52.054;5.294;2023-08-01T01:12:06;13.38;;;3.90;;
69985;SDS011;57328;52.054;5.294;2023-08-01T01:14:34;11.10;;;3.95;;
69985;SDS011;57328;52.054;5.294;2023-08-01T01:17:01;13.60;;;4.20;;
69985;SDS011;57328;52.054;5.294;2023-08-01T01:19:29;11.23;;;4.22;;
69985;SDS011;57328;52.054;5.294;2023-08-01T01:21:56;11.02;;;4.55;;
69985;SDS011;57328;52.054;5.294;2023-08-01T01:24:24;15.15;;;4.57;;
69985;SDS011;57328;52.054;5.294;2023-08-01T01:26:53;14.68;;;4.88;;
69985;SDS011;57328;52.054;5.294;2023-08-01T01:29:21;12.93;;;4.97;;
69985;SDS011;57328;52.054;5.294;2023-08-01T01:31:49;19.38;;;5.25;;
69985;SDS011;57328;52.054;5.294;2023-08-01T01:34:17;15.30;;;4.97;;
69985;SDS011;57328;52.054;5.294;2023-08-01T01:36:44;15.35;;;5.13;;
69985;SDS011;57328;52.054;5.294;2023-08-01T01:39:11;13.18;;;4.72;;
69985;SDS011;57328;52.054;5.294;2023-08-01T01:41:39;18.58;;;4.82;;
69985;SDS011;57328;52.054;5.294;2023-08-01T01:44:06;14.05;;;4.95;;
69985;SDS011;57328;52.054;5.294;2023-08-01T01:46:33;15.07;;;4.82;;
69985;SDS011;57328;52.054;5.294;2023-08-01T01:49:01;14.52;;;4.97;;
69985;SDS011;57328;52.054;5.294;2023-08-01T01:51:28;17.15;;;5.22;;
69985;SDS011;57328;52.054;5.294;2023-08-01T01:53:56;17.58;;;5.18;;
69985;SDS011;57328;52.054;5.294;2023-08-01T01:56:23;14.93;;;5.07;;
69985;SDS011;57328;52.054;5.294;2023-08-01T01:58:50;19.10;;;5.63;;
69985;SDS011;57328;52.054;5.294;2023-08-01T02:01:18;22.25;;;5.10;;
69985;SDS011;57328;52.054;5.294;2023-08-01T02:03:45;15.52;;;5.07;;
69985;SDS011;57328;52.054;5.294;2023-08-01T02:06:12;13.15;;;4.45;;
69985;SDS011;57328;52.054;5.294;2023-08-01T02:08:39;14.80;;;4.80;;
69985;SDS011;57328;52.054;5.294;2023-08-01T02:11:06;20.55;;;4.80;;
69985;SDS011;57328;52.054;5.294;2023-08-01T02:13:34;19.80;;;4.82;;
69985;SDS011;57328;52.054;5.294;2023-08-01T02:16:01;16.73;;;4.60;;
69985;SDS011;57328;52.054;5.294;2023-08-01T02:18:29;12.43;;;4.30;;
69985;SDS011;57328;52.054;5.294;2023-08-01T02:20:56;17.60;;;4.80;;
69985;SDS011;57328;52.054;5.294;2023-08-01T02:23:23;16.63;;;4.78;;
69985;SDS011;57328;52.054;5.294;2023-08-01T02:25:51;16.92;;;4.53;;
69985;SDS011;57328;52.054;5.294;2023-08-01T02:28:18;15.55;;;4.15;;
69985;SDS011;57328;52.054;5.294;2023-08-01T02:30:45;14.27;;;4.80;;
69985;SDS011;57328;52.054;5.294;2023-08-01T02:33:12;14.80;;;4.43;;
69985;SDS011;57328;52.054;5.294;2023-08-01T02:35:40;17.08;;;4.55;;
69985;SDS011;57328;52.054;5.294;2023-08-01T02:38:07;18.60;;;4.38;;
69985;SDS011;57328;52.054;5.294;2023-08-01T02:40:34;18.60;;;5.10;;
69985;SDS011;57328;52.054;5.294;2023-08-01T02:43:01;17.35;;;5.10;;
69985;SDS011;57328;52.054;5.294;2023-08-01T02:45:29;14.50;;;4.65;;
69985;SDS011;57328;52.054;5.294;2023-08-01T02:47:56;22.30;;;4.22;;
69985;SDS011;57328;52.054;5.294;2023-08-01T02:50:23;15.50;;;4.53;;
69985;SDS011;57328;52.054;5.294;2023-08-01T02:52:51;18.23;;;4.35;;
69985;SDS011;57328;52.054;5.294;2023-08-01T02:55:18;15.38;;;4.05;;
69985;SDS011;57328;52.054;5.294;2023-08-01T02:57:45;14.27;;;4.30;;
69985;SDS011;57328;52.054;5.294;2023-08-01T03:00:12;14.65;;;3.90;;
69985;SDS011;57328;52.054;5.294;2023-08-01T03:02:40;15.25;;;3.65;;
69985;SDS011;57328;52.054;5.294;2023-08-01T03:05:08;15.90;;;4.15;;
69985;SDS011;57328;52.054;5.294;2023-08-01T03:07:35;13.70;;;4.18;;
69985;SDS011;57328;52.054;5.294;2023-08-01T03:10:03;14.98;;;4.28;;
69985;SDS011;57328;52.054;5.294;2023-08-01T03:12:30;18.08;;;4.47;;
69985;SDS011;57328;52.054;5.294;2023-08-01T03:14:57;16.40;;;4.30;;
69985;SDS011;57328;52.054;5.294;2023-08-01T03:17:24;13.15;;;4.63;;
69985;SDS011;57328;52.054;5.294;2023-08-01T03:19:52;15.18;;;4.60;;
69985;SDS011;57328;52.054;5.294;2023-08-01T03:22:19;18.58;;;5.05;;
69985;SDS011;57328;52.054;5.294;2023-08-01T03:24:46;15.35;;;4.88;;
69985;SDS011;57328;52.054;5.294;2023-08-01T03:27:14;19.42;;;4.97;;
69985;SDS011;57328;52.054;5.294;2023-08-01T03:29:41;17.98;;;5.07;;
69985;SDS011;57328;52.054;5.294;2023-08-01T03:32:08;16.70;;;4.10;;
69985;SDS011;57328;52.054;5.294;2023-08-01T03:34:35;16.95;;;4.80;;
69985;SDS011;57328;52.054;5.294;2023-08-01T03:37:03;14.18;;;4.03;;
69985;SDS011;57328;52.054;5.294;2023-08-01T03:39:30;12.55;;;3.20;;
69985;SDS011;57328;52.054;5.294;2023-08-01T03:41:57;15.15;;;3.20;;
69985;SDS011;57328;52.054;5.294;2023-08-01T03:44:24;12.68;;;3.08;;
69985;SDS011;57328;52.054;5.294;2023-08-01T03:46:52;11.10;;;3.08;;
69985;SDS011;57328;52.054;5.294;2023-08-01T03:49:19;11.68;;;3.00;;
69985;SDS011;57328;52.054;5.294;2023-08-01T03:51:47;9.43;;;2.83;;
69985;SDS011;57328;52.054;5.294;2023-08-01T03:54:14;13.77;;;2.97;;
69985;SDS011;57328;52.054;5.294;2023-08-01T03:56:41;13.77;;;3.38;;
69985;SDS011;57328;52.054;5.294;2023-08-01T03:59:11;10.60;;;3.08;;
69985;SDS011;57328;52.054;5.294;2023-08-01T04:01:38;10.77;;;3.30;;
69985;SDS011;57328;52.054;5.294;2023-08-01T04:04:06;13.43;;;4.05;;
69985;SDS011;57328;52.054;5.294;2023-08-01T04:06:33;13.88;;;3.63;;
69985;SDS011;57328;52.054;5.294;2023-08-01T04:09:00;13.35;;;3.83;;
69985;SDS011;57328;52.054;5.294;2023-08-01T04:11:28;17.60;;;4.25;;
69985;SDS011;57328;52.054;5.294;2023-08-01T04:13:56;17.23;;;3.80;;
69985;SDS011;57328;52.054;5.294;2023-08-01T04:16:23;14.38;;;3.95;;
69985;SDS011;57328;52.054;5.294;2023-08-01T04:18:51;11.15;;;3.55;;
69985;SDS011;57328;52.054;5.294;2023-08-01T04:21:18;13.60;;;3.38;;
69985;SDS011;57328;52.054;5.294;2023-08-01T04:23:45;13.50;;;3.63;;
69985;SDS011;57328;52.054;5.294;2023-08-01T04:26:12;11.88;;;3.33;;
69985;SDS011;57328;52.054;5.294;2023-08-01T04:28:40;14.95;;;3.83;;
69985;SDS011;57328;52.054;5.294;2023-08-01T04:31:07;14.90;;;3.70;;
69985;SDS011;57328;52.054;5.294;2023-08-01T04:33:35;14.57;;;4.10;;
69985;SDS011;57328;52.054;5.294;2023-08-01T04:36:02;15.80;;;4.35;;
69985;SDS011;57328;52.054;5.294;2023-08-01T04:38:29;18.58;;;3.88;;
69985;SDS011;57328;52.054;5.294;2023-08-01T04:40:56;16.80;;;4.03;;
69985;SDS011;57328;52.054;5.294;2023-08-01T04:43:24;18.25;;;4.30;;
69985;SDS011;57328;52.054;5.294;2023-08-01T04:45:51;18.00;;;4.38;;
69985;SDS011;57328;52.054;5.294;2023-08-01T04:48:18;16.13;;;3.88;;
69985;SDS011;57328;52.054;5.294;2023-08-01T04:50:45;15.75;;;3.75;;
69985;SDS011;57328;52.054;5.294;2023-08-01T04:53:13;18.23;;;3.83;;
69985;SDS011;57328;52.054;5.294;2023-08-01T04:55:40;17.15;;;4.03;;
69985;SDS011;57328;52.054;5.294;2023-08-01T04:58:08;18.92;;;4.43;;
69985;SDS011;57328;52.054;5.294;2023-08-01T05:00:37;12.68;;;4.10;;
69985;SDS011;57328;52.054;5.294;2023-08-01T05:03:05;17.00;;;4.10;;
69985;SDS011;57328;52.054;5.294;2023-08-01T05:05:32;16.77;;;3.92;;
69985;SDS011;57328;52.054;5.294;2023-08-01T05:07:59;17.52;;;4.18;;
69985;SDS011;57328;52.054;5.294;2023-08-01T05:10:26;14.25;;;3.92;;
69985;SDS011;57328;52.054;5.294;2023-08-01T05:12:54;12.02;;;3.60;;
69985;SDS011;57328;52.054;5.294;2023-08-01T05:15:21;16.50;;;4.00;;
69985;SDS011;57328;52.054;5.294;2023-08-01T05:17:48;12.23;;;3.58;;
69985;SDS011;57328;52.054;5.294;2023-08-01T05:20:16;11.85;;;3.67;;
69985;SDS011;57328;52.054;5.294;2023-08-01T05:22:43;18.92;;;4.32;;
69985;SDS011;57328;52.054;5.294;2023-08-01T05:25:10;16.30;;;3.83;;
69985;SDS011;57328;52.054;5.294;2023-08-01T05:27:38;14.60;;;3.50;;
69985;SDS011;57328;52.054;5.294;2023-08-01T05:30:05;10.57;;;3.40;;
69985;SDS011;57328;52.054;5.294;2023-08-01T05:32:33;13.23;;;3.45;;
69985;SDS011;57328;52.054;5.294;2023-08-01T05:35:00;10.43;;;3.58;;
69985;SDS011;57328;52.054;5.294;2023-08-01T05:37:27;13.80;;;3.80;;
69985;SDS011;57328;52.054;5.294;2023-08-01T05:39:54;15.07;;;3.80;;
69985;SDS011;57328;52.054;5.294;2023-08-01T05:42:22;10.38;;;3.15;;
69985;SDS011;57328;52.054;5.294;2023-08-01T05:44:49;13.32;;;3.47;;
69985;SDS011;57328;52.054;5.294;2023-08-01T05:47:16;13.93;;;3.85;;
69985;SDS011;57328;52.054;5.294;2023-08-01T05:49:44;11.00;;;3.25;;
69985;SDS011;57328;52.054;5.294;2023-08-01T05:52:11;13.85;;;3.70;;
69985;SDS011;57328;52.054;5.294;2023-08-01T05:54:38;14.32;;;3.20;;
69985;SDS011;57328;52.054;5.294;2023-08-01T05:57:05;11.00;;;2.88;;
69985;SDS011;57328;52.054;5.294;2023-08-01T05:59:33;16.10;;;3.25;;
69985;SDS011;57328;52.054;5.294;2023-08-01T06:02:00;14.70;;;3.60;;
69985;SDS011;57328;52.054;5.294;2023-08-01T06:04:29;12.55;;;2.90;;
69985;SDS011;57328;52.054;5.294;2023-08-01T06:06:56;13.77;;;3.33;;
69985;SDS011;57328;52.054;5.294;2023-08-01T06:09:24;13.10;;;3.20;;
69985;SDS011;57328;52.054;5.294;2023-08-01T06:11:51;14.50;;;2.85;;
69985;SDS011;57328;52.054;5.294;2023-08-01T06:14:18;11.60;;;2.60;;
69985;SDS011;57328;52.054;5.294;2023-08-01T06:16:46;10.60;;;3.13;;
69985;SDS011;57328;52.054;5.294;2023-08-01T06:19:13;10.48;;;2.80;;
69985;SDS011;57328;52.054;5.294;2023-08-01T06:21:40;10.15;;;2.35;;
69985;SDS011;57328;52.054;5.294;2023-08-01T06:24:08;10.30;;;2.42;;
69985;SDS011;57328;52.054;5.294;2023-08-01T06:26:36;8.10;;;2.22;;
69985;SDS011;57328;52.054;5.294;2023-08-01T06:29:04;10.10;;;2.97;;
69985;SDS011;57328;52.054;5.294;2023-08-01T06:31:31;10.18;;;2.97;;
69985;SDS011;57328;52.054;5.294;2023-08-01T06:33:58;8.93;;;2.50;;
69985;SDS011;57328;52.054;5.294;2023-08-01T06:36:26;8.88;;;2.50;;
69985;SDS011;57328;52.054;5.294;2023-08-01T06:38:53;8.65;;;2.67;;
69985;SDS011;57328;52.054;5.294;2023-08-01T06:41:20;9.65;;;2.70;;
69985;SDS011;57328;52.054;5.294;2023-08-01T06:43:47;9.25;;;2.58;;
69985;SDS011;57328;52.054;5.294;2023-08-01T06:46:15;11.23;;;2.60;;
69985;SDS011;57328;52.054;5.294;2023-08-01T06:48:42;9.55;;;2.90;;
69985;SDS011;57328;52.054;5.294;2023-08-01T06:51:09;10.55;;;2.22;;
69985;SDS011;57328;52.054;5.294;2023-08-01T06:53:37;10.68;;;2.42;;
69985;SDS011;57328;52.054;5.294;2023-08-01T06:56:04;11.13;;;2.50;;
69985;SDS011;57328;52.054;5.294;2023-08-01T06:58:32;10.82;;;2.38;;
69985;SDS011;57328;52.054;5.294;2023-08-01T07:00:59;9.90;;;2.58;;
69985;SDS011;57328;52.054;5.294;2023-08-01T07:03:26;9.10;;;2.28;;
69985;SDS011;57328;52.054;5.294;2023-08-01T07:05:54;9.15;;;2.30;;
69985;SDS011;57328;52.054;5.294;2023-08-01T07:08:21;12.38;;;2.70;;
69985;SDS011;57328;52.054;5.294;2023-08-01T07:10:48;10.57;;;2.45;;
69985;SDS011;57328;52.054;5.294;2023-08-01T07:13:15;8.55;;;2.40;;
69985;SDS011;57328;52.054;5.294;2023-08-01T07:15:45;9.52;;;2.10;;
69985;SDS011;57328;52.054;5.294;2023-08-01T07:18:13;9.55;;;2.25;;
69985;SDS011;57328;52.054;5.294;2023-08-01T07:20:40;7.40;;;2.25;;
69985;SDS011;57328;52.054;5.294;2023-08-01T07:23:07;7.53;;;2.10;;
69985;SDS011;57328;52.054;5.294;2023-08-01T07:25:34;9.65;;;2.65;;
69985;SDS011;57328;52.054;5.294;2023-08-01T07:28:02;12.75;;;2.50;;
69985;SDS011;57328;52.054;5.294;2023-08-01T07:30:30;8.73;;;2.17;;
69985;SDS011;57328;52.054;5.294;2023-08-01T07:32:57;6.25;;;1.92;;
69985;SDS011;57328;52.054;5.294;2023-08-01T07:35:24;8.38;;;2.50;;
69985;SDS011;57328;52.054;5.294;2023-08-01T07:37:51;7.38;;;2.30;;
69985;SDS011;57328;52.054;5.294;2023-08-01T07:40:18;8.57;;;2.30;;
69985;SDS011;57328;52.054;5.294;2023-08-01T07:42:46;8.63;;;2.20;;
69985;SDS011;57328;52.054;5.294;2023-08-01T07:45:13;12.50;;;2.35;;
69985;SDS011;57328;52.054;5.294;2023-08-01T07:47:40;7.20;;;2.17;;
69985;SDS011;57328;52.054;5.294;2023-08-01T07:50:08;10.57;;;2.30;;
69985;SDS011;57328;52.054;5.294;2023-08-01T07:52:35;10.10;;;2.65;;
69985;SDS011;57328;52.054;5.294;2023-08-01T07:55:06;6.85;;;2.35;;
69985;SDS011;57328;52.054;5.294;2023-08-01T07:57:34;11.80;;;2.45;;
69985;SDS011;57328;52.054;5.294;2023-08-01T08:00:01;9.63;;;2.00;;
69985;SDS011;57328;52.054;5.294;2023-08-01T08:02:28;7.50;;;2.40;;
69985;SDS011;57328;52.054;5.294;2023-08-01T08:04:55;8.77;;;2.15;;
69985;SDS011;57328;52.054;5.294;2023-08-01T08:07:22;7.57;;;2.20;;
69985;SDS011;57328;52.054;5.294;2023-08-01T08:09:50;9.45;;;2.25;;
69985;SDS011;57328;52.054;5.294;2023-08-01T08:12:17;8.18;;;1.92;;
69985;SDS011;57328;52.054;5.294;2023-08-01T08:14:44;7.70;;;2.10;;
69985;SDS011;57328;52.054;5.294;2023-08-01T08:17:11;8.23;;;1.85;;
69985;SDS011;57328;52.054;5.294;2023-08-01T08:19:39;8.48;;;1.90;;
69985;SDS011;57328;52.054;5.294;2023-08-01T08:22:06;8.38;;;2.03;;
69985;SDS011;57328;52.054;5.294;2023-08-01T08:24:33;8.68;;;1.90;;
69985;SDS011;57328;52.054;5.294;2023-08-01T08:27:04;6.10;;;2.10;;
69985;SDS011;57328;52.054;5.294;2023-08-01T08:29:31;6.47;;;1.58;;
69985;SDS011;57328;52.054;5.294;2023-08-01T08:31:59;6.97;;;1.40;;
69985;SDS011;57328;52.054;5.294;2023-08-01T08:34:26;6.22;;;1.60;;
69985;SDS011;57328;52.054;5.294;2023-08-01T08:36:53;4.65;;;1.23;;
69985;SDS011;57328;52.054;5.294;2023-08-01T08:39:20;4.97;;;1.52;;
69985;SDS011;57328;52.054;5.294;2023-08-01T08:41:49;5.68;;;1.52;;
69985;SDS011;57328;52.054;5.294;2023-08-01T08:44:16;6.88;;;1.45;;
69985;SDS011;57328;52.054;5.294;2023-08-01T08:46:46;6.30;;;1.42;;
69985;SDS011;57328;52.054;5.294;2023-08-01T08:49:16;6.63;;;1.30;;
69985;SDS011;57328;52.054;5.294;2023-08-01T08:51:46;4.15;;;1.40;;
69985;SDS011;57328;52.054;5.294;2023-08-01T08:54:14;7.13;;;1.63;;
69985;SDS011;57328;52.054;5.294;2023-08-01T08:56:41;6.25;;;1.60;;
69985;SDS011;57328;52.054;5.294;2023-08-01T08:59:09;4.65;;;1.48;;
69985;SDS011;57328;52.054;5.294;2023-08-01T09:01:37;5.45;;;1.35;;
69985;SDS011;57328;52.054;5.294;2023-08-01T09:04:04;6.35;;;1.25;;
69985;SDS011;57328;52.054;5.294;2023-08-01T09:06:34;6.53;;;1.73;;
69985;SDS011;57328;52.054;5.294;2023-08-01T09:09:03;5.45;;;1.48;;
69985;SDS011;57328;52.054;5.294;2023-08-01T09:11:47;8.07;;;1.75;;
69985;SDS011;57328;52.054;5.294;2023-08-01T09:14:14;13.95;;;1.60;;
69985;SDS011;57328;52.054;5.294;2023-08-01T09:16:42;6.65;;;1.42;;
69985;SDS011;57328;52.054;5.294;2023-08-01T09:19:10;7.72;;;1.50;;
69985;SDS011;57328;52.054;5.294;2023-08-01T09:21:39;6.50;;;1.30;;
69985;SDS011;57328;52.054;5.294;2023-08-01T09:24:10;6.85;;;1.55;;
69985;SDS011;57328;52.054;5.294;2023-08-01T09:26:38;6.72;;;1.48;;
69985;SDS011;57328;52.054;5.294;2023-08-01T09:29:06;8.10;;;1.50;;
69985;SDS011;57328;52.054;5.294;2023-08-01T09:31:35;8.75;;;1.48;;
69985;SDS011;57328;52.054;5.294;2023-08-01T09:34:03;6.80;;;1.63;;
69985;SDS011;57328;52.054;5.294;2023-08-01T09:36:34;6.32;;;1.60;;
69985;SDS011;57328;52.054;5.294;2023-08-01T09:39:03;8.15;;;1.73;;
69985;SDS011;57328;52.054;5.294;2023-08-01T09:41:30;7.65;;;1.70;;
69985;SDS011;57328;52.054;5.294;2023-08-01T09:43:58;8.52;;;1.73;;
69985;SDS011;57328;52.054;5.294;2023-08-01T09:46:25;11.88;;;1.95;;
69985;SDS011;57328;52.054;5.294;2023-08-01T09:48:53;5.30;;;1.27;;
69985;SDS011;57328;52.054;5.294;2023-08-01T09:51:20;5.45;;;1.35;;
69985;SDS011;57328;52.054;5.294;2023-08-01T09:53:51;9.27;;;1.63;;
69985;SDS011;57328;52.054;5.294;2023-08-01T09:56:23;7.50;;;1.30;;
69985;SDS011;57328;52.054;5.294;2023-08-01T09:58:52;7.95;;;1.52;;
69985;SDS011;57328;52.054;5.294;2023-08-01T10:01:22;7.10;;;1.67;;
69985;SDS011;57328;52.054;5.294;2023-08-01T10:03:50;7.00;;;1.45;;
69985;SDS011;57328;52.054;5.294;2023-08-01T10:06:18;5.90;;;1.67;;
69985;SDS011;57328;52.054;5.294;2023-08-01T10:08:46;8.98;;;2.13;;
69985;SDS011;57328;52.054;5.294;2023-08-01T10:11:14;6.03;;;1.50;;
69985;SDS011;57328;52.054;5.294;2023-08-01T10:13:42;8.50;;;1.50;;
69985;SDS011;57328;52.054;5.294;2023-08-01T10:16:10;8.20;;;1.67;;
69985;SDS011;57328;52.054;5.294;2023-08-01T10:18:37;6.03;;;1.65;;
69985;SDS011;57328;52.054;5.294;2023-08-01T10:21:08;6.25;;;1.80;;
69985;SDS011;57328;52.054;5.294;2023-08-01T10:23:36;6.22;;;1.60;;
69985;SDS011;57328;52.054;5.294;2023-08-01T10:26:05;6.28;;;1.40;;
69985;SDS011;57328;52.054;5.294;2023-08-01T10:28:36;4.72;;;1.50;;
69985;SDS011;57328;52.054;5.294;2023-08-01T10:31:16;6.10;;;1.52;;
69985;SDS011;57328;52.054;5.294;2023-08-01T10:36:18;4.90;;;1.30;;
69985;SDS011;57328;52.054;5.294;2023-08-01T10:38:54;4.75;;;1.10;;
69985;SDS011;57328;52.054;5.294;2023-08-01T10:43:48;6.45;;;1.60;;
69985;SDS011;57328;52.054;5.294;2023-08-01T10:46:15;9.95;;;1.92;;
69985;SDS011;57328;52.054;5.294;2023-08-01T10:48:49;7.85;;;1.60;;
69985;SDS011;57328;52.054;5.294;2023-08-01T10:51:17;5.20;;;1.15;;
69985;SDS011;57328;52.054;5.294;2023-08-01T10:53:44;5.90;;;1.50;;
69985;SDS011;57328;52.054;5.294;2023-08-01T10:56:16;4.95;;;1.55;;
69985;SDS011;57328;52.054;5.294;2023-08-01T10:58:44;5.55;;;1.15;;
69985;SDS011;57328;52.054;5.294;2023-08-01T11:01:12;5.75;;;1.70;;
69985;SDS011;57328;52.054;5.294;2023-08-01T11:03:39;4.88;;;1.33;;
69985;SDS011;57328;52.054;5.294;2023-08-01T11:06:08;4.57;;;1.40;;
69985;SDS011;57328;52.054;5.294;2023-08-01T11:08:38;7.43;;;1.30;;
69985;SDS011;57328;52.054;5.294;2023-08-01T11:11:14;3.95;;;1.52;;
69985;SDS011;57328;52.054;5.294;2023-08-01T11:13:49;3.90;;;1.15;;
69985;SDS011;57328;52.054;5.294;2023-08-01T11:16:17;5.28;;;1.60;;
69985;SDS011;57328;52.054;5.294;2023-08-01T11:18:44;6.95;;;1.50;;
69985;SDS011;57328;52.054;5.294;2023-08-01T11:21:12;5.88;;;1.58;;
69985;SDS011;57328;52.054;5.294;2023-08-01T11:23:40;5.65;;;1.70;;
69985;SDS011;57328;52.054;5.294;2023-08-01T11:26:08;5.80;;;1.52;;
69985;SDS011;57328;52.054;5.294;2023-08-01T11:28:35;7.22;;;1.40;;
69985;SDS011;57328;52.054;5.294;2023-08-01T11:31:12;6.28;;;1.40;;
69985;SDS011;57328;52.054;5.294;2023-08-01T11:33:39;6.88;;;1.55;;
69985;SDS011;57328;52.054;5.294;2023-08-01T11:36:06;15.00;;;2.20;;
69985;SDS011;57328;52.054;5.294;2023-08-01T11:38:34;4.60;;;1.42;;
69985;SDS011;57328;52.054;5.294;2023-08-01T11:41:03;7.50;;;1.65;;
69985;SDS011;57328;52.054;5.294;2023-08-01T11:43:40;7.50;;;1.95;;
69985;SDS011;57328;52.054;5.294;2023-08-01T11:46:07;8.23;;;1.70;;
69985;SDS011;57328;52.054;5.294;2023-08-01T11:48:35;3.95;;;1.20;;
69985;SDS011;57328;52.054;5.294;2023-08-01T11:51:03;7.40;;;1.50;;
69985;SDS011;57328;52.054;5.294;2023-08-01T11:53:30;7.78;;;1.65;;
69985;SDS011;57328;52.054;5.294;2023-08-01T11:56:04;5.95;;;1.30;;
69985;SDS011;57328;52.054;5.294;2023-08-01T11:58:35;7.32;;;2.13;;
69985;SDS011;57328;52.054;5.294;2023-08-01T12:01:07;6.45;;;1.73;;
69985;SDS011;57328;52.054;5.294;2023-08-01T12:03:42;9.30;;;1.40;;
69985;SDS011;57328;52.054;5.294;2023-08-01T12:06:09;9.07;;;1.60;;
69985;SDS011;57328;52.054;5.294;2023-08-01T12:08:37;5.47;;;1.30;;
69985;SDS011;57328;52.054;5.294;2023-08-01T12:11:05;8.65;;;1.63;;
69985;SDS011;57328;52.054;5.294;2023-08-01T12:13:32;9.88;;;1.60;;
69985;SDS011;57328;52.054;5.294;2023-08-01T12:15:59;5.78;;;1.50;;
69985;SDS011;57328;52.054;5.294;2023-08-01T12:18:27;9.90;;;1.90;;
69985;SDS011;57328;52.054;5.294;2023-08-01T12:21:14;6.72;;;1.40;;
69985;SDS011;57328;52.054;5.294;2023-08-01T12:23:41;7.85;;;1.73;;
69985;SDS011;57328;52.054;5.294;2023-08-01T12:26:09;6.70;;;1.50;;
69985;SDS011;57328;52.054;5.294;2023-08-01T12:28:36;8.20;;;1.60;;
69985;SDS011;57328;52.054;5.294;2023-08-01T12:31:03;5.55;;;1.83;;
69985;SDS011;57328;52.054;5.294;2023-08-01T12:33:31;5.82;;;1.25;;
69985;SDS011;57328;52.054;5.294;2023-08-01T12:35:59;8.40;;;1.98;;
69985;SDS011;57328;52.054;5.294;2023-08-01T12:38:26;6.00;;;1.85;;
69985;SDS011;57328;52.054;5.294;2023-08-01T12:40:54;8.95;;;1.83;;
69985;SDS011;57328;52.054;5.294;2023-08-01T12:43:21;6.15;;;1.50;;
69985;SDS011;57328;52.054;5.294;2023-08-01T12:45:48;7.03;;;1.60;;
69985;SDS011;57328;52.054;5.294;2023-08-01T12:48:20;6.57;;;1.95;;
69985;SDS011;57328;52.054;5.294;2023-08-01T12:50:47;5.68;;;2.03;;
69985;SDS011;57328;52.054;5.294;2023-08-01T12:53:15;8.52;;;2.60;;
69985;SDS011;57328;52.054;5.294;2023-08-01T12:55:49;5.07;;;1.40;;
69985;SDS011;57328;52.054;5.294;2023-08-01T12:58:17;14.98;;;7.25;;
69985;SDS011;57328;52.054;5.294;2023-08-01T13:00:44;6.32;;;1.85;;
69985;SDS011;57328;52.054;5.294;2023-08-01T13:03:12;4.53;;;1.23;;
69985;SDS011;57328;52.054;5.294;2023-08-01T13:05:40;6.32;;;1.33;;
69985;SDS011;57328;52.054;5.294;2023-08-01T13:08:07;8.43;;;2.20;;
69985;SDS011;57328;52.054;5.294;2023-08-01T13:10:36;5.78;;;1.52;;
69985;SDS011;57328;52.054;5.294;2023-08-01T13:13:03;9.18;;;1.90;;
69985;SDS011;57328;52.054;5.294;2023-08-01T13:15:30;10.27;;;2.00;;
69985;SDS011;57328;52.054;5.294;2023-08-01T13:17:58;7.53;;;1.90;;
69985;SDS011;57328;52.054;5.294;2023-08-01T13:20:25;7.78;;;1.88;;
69985;SDS011;57328;52.054;5.294;2023-08-01T13:22:55;8.43;;;1.75;;
69985;SDS011;57328;52.054;5.294;2023-08-01T13:25:23;7.88;;;1.92;;
69985;SDS011;57328;52.054;5.294;2023-08-01T13:27:50;9.60;;;1.90;;
69985;SDS011;57328;52.054;5.294;2023-08-01T13:30:17;6.45;;;1.38;;
69985;SDS011;57328;52.054;5.294;2023-08-01T13:32:45;6.05;;;1.70;;
69985;SDS011;57328;52.054;5.294;2023-08-01T13:35:13;6.57;;;1.40;;
69985;SDS011;57328;52.054;5.294;2023-08-01T13:37:40;7.00;;;1.23;;
69985;SDS011;57328;52.054;5.294;2023-08-01T13:40:08;4.93;;;1.35;;
69985;SDS011;57328;52.054;5.294;2023-08-01T13:42:37;6.00;;;1.23;;
69985;SDS011;57328;52.054;5.294;2023-08-01T13:45:05;6.30;;;1.40;;
69985;SDS011;57328;52.054;5.294;2023-08-01T13:47:33;5.35;;;1.25;;
69985;SDS011;57328;52.054;5.294;2023-08-01T13:50:00;5.10;;;1.30;;
69985;SDS011;57328;52.054;5.294;2023-08-01T13:52:27;5.93;;;1.30;;
69985;SDS011;57328;52.054;5.294;2023-08-01T13:54:55;4.30;;;1.10;;
69985;SDS011;57328;52.054;5.294;2023-08-01T13:57:22;3.78;;;1.30;;
69985;SDS011;57328;52.054;5.294;2023-08-01T13:59:52;6.90;;;1.38;;
69985;SDS011;57328;52.054;5.294;2023-08-01T14:02:31;7.63;;;1.42;;
69985;SDS011;57328;52.054;5.294;2023-08-01T14:04:59;6.22;;;1.45;;
69985;SDS011;57328;52.054;5.294;2023-08-01T14:07:26;8.75;;;1.35;;
69985;SDS011;57328;52.054;5.294;2023-08-01T14:09:53;7.47;;;2.00;;
69985;SDS011;57328;52.054;5.294;2023-08-01T14:12:21;11.73;;;1.70;;
69985;SDS011;57328;52.054;5.294;2023-08-01T14:14:50;4.10;;;1.40;;
69985;SDS011;57328;52.054;5.294;2023-08-01T14:17:17;7.22;;;2.20;;
69985;SDS011;57328;52.054;5.294;2023-08-01T14:19:45;5.75;;;1.65;;
69985;SDS011;57328;52.054;5.294;2023-08-01T14:22:12;5.07;;;1.10;;
69985;SDS011;57328;52.054;5.294;2023-08-01T14:24:39;7.82;;;1.90;;
69985;SDS011;57328;52.054;5.294;2023-08-01T14:27:08;7.40;;;1.50;;
69985;SDS011;57328;52.054;5.294;2023-08-01T14:29:35;9.52;;;1.65;;
69985;SDS011;57328;52.054;5.294;2023-08-01T14:32:02;5.43;;;1.20;;
69985;SDS011;57328;52.054;5.294;2023-08-01T14:34:30;7.70;;;1.58;;
69985;SDS011;57328;52.054;5.294;2023-08-01T14:36:57;5.32;;;1.30;;
69985;SDS011;57328;52.054;5.294;2023-08-01T14:39:24;6.43;;;1.42;;
69985;SDS011;57328;52.054;5.294;2023-08-01T14:41:52;8.38;;;1.70;;
69985;SDS011;57328;52.054;5.294;2023-08-01T14:44:31;5.85;;;1.70;;
69985;SDS011;57328;52.054;5.294;2023-08-01T14:46:58;7.63;;;1.40;;
69985;SDS011;57328;52.054;5.294;2023-08-01T14:49:25;4.78;;;1.30;;